createdAt,value
2023-01-31T00:01:41.001Z,97997.00
2023-01-31T00:04:12.341Z,98003.00
2023-01-31T00:06:43.496Z,97999.00
2023-01-31T00:09:12.900Z,98004.00
2023-01-31T00:11:39.987Z,98001.00
2023-01-31T00:14:08.457Z,97995.00
2023-01-31T00:16:36.079Z,98004.00
2023-01-31T00:19:04.177Z,97992.00
2023-01-31T00:21:32.232Z,97989.00
2023-01-31T00:24:00.144Z,97986.00
2023-01-31T00:26:33.958Z,97986.00
2023-01-31T00:29:03.878Z,97988.00
2023-01-31T00:31:33.563Z,97984.00
2023-01-31T00:34:00.799Z,97986.00
2023-01-31T00:36:33.698Z,97977.00
2023-01-31T00:39:03.288Z,97979.00
2023-01-31T00:41:31.196Z,97978.00
2023-01-31T00:43:58.493Z,97991.00
2023-01-31T00:46:26.042Z,97981.00
2023-01-31T00:48:53.523Z,97982.00
2023-01-31T00:51:21.328Z,97980.00
2023-01-31T00:53:50.178Z,97977.00
2023-01-31T00:56:23.557Z,97977.00
2023-01-31T00:58:51.442Z,97975.00
2023-01-31T01:01:26.071Z,97988.00
2023-01-31T01:03:53.864Z,97987.00
2023-01-31T01:06:21.534Z,97992.00
2023-01-31T01:08:48.372Z,97978.00
2023-01-31T01:11:22.746Z,97971.00
2023-01-31T01:13:50.095Z,97973.00
2023-01-31T01:16:24.011Z,97975.00
2023-01-31T01:18:51.071Z,97990.00
2023-01-31T01:21:22.329Z,97973.00
2023-01-31T01:23:50.104Z,97985.00
2023-01-31T01:26:22.763Z,97983.00
2023-01-31T01:28:50.641Z,97975.00
2023-01-31T01:31:19.292Z,97978.00
2023-01-31T01:33:47.972Z,97970.00
2023-01-31T01:36:18.131Z,97969.00
2023-01-31T01:38:45.754Z,97970.00
2023-01-31T01:41:14.497Z,97966.00
2023-01-31T01:43:48.800Z,97976.00
2023-01-31T01:46:33.247Z,97956.00
2023-01-31T01:49:11.961Z,97958.00
2023-01-31T01:51:40.613Z,97958.00
2023-01-31T01:54:13.598Z,97965.00
2023-01-31T01:56:43.821Z,97966.00
2023-01-31T01:59:25.395Z,97982.00
2023-01-31T02:01:52.653Z,97981.00
2023-01-31T02:04:25.993Z,97973.00
2023-01-31T02:06:53.569Z,97983.00
2023-01-31T02:09:33.210Z,97971.00
2023-01-31T02:11:59.999Z,97971.00
2023-01-31T02:14:27.400Z,97973.00
2023-01-31T02:16:54.278Z,97961.00
2023-01-31T02:19:37.751Z,97968.00
2023-01-31T02:22:33.305Z,97967.00
2023-01-31T02:25:24.250Z,97965.00
2023-01-31T02:28:19.692Z,97964.00
2023-01-31T02:31:26.303Z,97968.00
2023-01-31T02:34:04.492Z,97953.00
2023-01-31T02:37:19.856Z,97974.00
2023-01-31T02:40:08.731Z,97968.00
2023-01-31T02:43:02.667Z,97978.00
2023-01-31T02:45:58.519Z,97983.00
2023-01-31T02:48:58.123Z,97982.00
2023-01-31T02:52:04.965Z,97972.00
2023-01-31T02:54:53.620Z,97971.00
2023-01-31T02:57:22.184Z,97985.00
2023-01-31T02:59:49.200Z,97983.00
2023-01-31T03:02:16.257Z,97982.00
2023-01-31T03:04:43.291Z,97968.00
2023-01-31T03:07:22.257Z,97969.00
2023-01-31T03:10:04.157Z,97984.00
2023-01-31T03:12:31.243Z,97990.00
2023-01-31T03:16:04.161Z,97987.00
2023-01-31T03:18:47.465Z,97978.00
2023-01-31T03:21:19.807Z,97980.00
2023-01-31T03:23:52.069Z,97977.00
2023-01-31T03:26:21.013Z,97977.00
2023-01-31T03:28:54.577Z,97976.00
2023-01-31T03:31:33.441Z,97979.00
2023-01-31T03:34:06.577Z,97974.00
2023-01-31T03:36:46.459Z,97980.00
2023-01-31T03:39:42.232Z,97993.00
2023-01-31T03:42:18.975Z,97998.00
2023-01-31T03:45:06.536Z,97990.00
2023-01-31T03:47:37.474Z,97986.00
2023-01-31T03:50:12.127Z,97988.00
2023-01-31T03:52:49.660Z,97985.00
2023-01-31T03:55:24.795Z,97977.00
2023-01-31T03:57:54.840Z,97970.00
2023-01-31T04:00:24.400Z,97973.00
2023-01-31T04:03:26.907Z,97978.00
2023-01-31T04:05:54.009Z,97971.00
2023-01-31T04:08:21.294Z,97977.00
2023-01-31T04:10:48.447Z,97975.00
2023-01-31T04:13:15.366Z,97963.00
2023-01-31T04:15:42.197Z,97973.00
2023-01-31T04:18:08.960Z,97978.00
2023-01-31T04:20:35.720Z,97988.00
2023-01-31T04:23:03.752Z,97986.00
2023-01-31T04:25:32.788Z,97993.00
2023-01-31T04:28:00.228Z,97991.00
2023-01-31T04:30:27.028Z,97995.00
2023-01-31T04:32:53.771Z,97992.00
2023-01-31T04:35:20.847Z,97987.00
2023-01-31T04:37:47.768Z,97995.00
2023-01-31T04:40:14.551Z,98004.00
2023-01-31T04:42:41.330Z,97995.00
2023-01-31T04:45:09.382Z,97990.00
2023-01-31T04:47:36.179Z,98001.00
2023-01-31T04:50:03.250Z,97994.00
2023-01-31T04:52:30.111Z,97991.00
2023-01-31T04:54:56.958Z,97981.00
2023-01-31T04:57:23.751Z,97995.00
2023-01-31T04:59:52.128Z,97992.00
2023-01-31T05:02:19.113Z,97990.00
2023-01-31T05:04:46.217Z,97995.00
2023-01-31T05:07:12.991Z,97989.00
2023-01-31T05:09:42.391Z,97996.00
2023-01-31T05:12:09.266Z,97991.00
2023-01-31T05:14:36.261Z,97988.00
2023-01-31T05:17:03.052Z,97990.00
2023-01-31T05:19:29.844Z,97994.00
2023-01-31T05:21:59.131Z,97983.00
2023-01-31T05:24:32.839Z,97980.00
2023-01-31T05:27:01.778Z,97976.00
2023-01-31T05:29:32.319Z,97972.00
2023-01-31T05:32:01.982Z,97976.00
2023-01-31T05:34:32.642Z,97962.00
2023-01-31T05:36:59.869Z,97972.00
2023-01-31T05:39:27.401Z,97979.00
2023-01-31T05:41:54.563Z,97979.00
2023-01-31T05:44:21.601Z,97969.00
2023-01-31T05:46:48.694Z,97979.00
2023-01-31T05:49:15.529Z,97977.00
2023-01-31T05:51:42.684Z,97984.00
2023-01-31T05:54:11.698Z,97991.00
2023-01-31T05:56:39.173Z,97986.00
2023-01-31T05:59:06.415Z,97996.00
2023-01-31T06:01:33.492Z,97990.00
2023-01-31T06:04:00.801Z,98001.00
2023-01-31T06:06:27.674Z,98015.00
2023-01-31T06:08:54.475Z,98022.00
2023-01-31T06:11:21.315Z,98012.00
2023-01-31T06:13:49.480Z,98013.00
2023-01-31T06:16:16.772Z,98003.00
2023-01-31T06:18:43.960Z,98010.00
2023-01-31T06:21:12.039Z,98015.00
2023-01-31T06:23:38.930Z,98021.00
2023-01-31T06:26:05.711Z,98017.00
2023-01-31T06:28:33.033Z,98013.00
2023-01-31T06:30:59.895Z,98018.00
2023-01-31T06:33:42.267Z,98012.00
2023-01-31T06:36:11.127Z,98003.00
2023-01-31T06:38:37.876Z,98007.00
2023-01-31T06:41:04.943Z,98016.00
2023-01-31T06:43:31.792Z,98023.00
2023-01-31T06:45:58.610Z,98033.00
2023-01-31T06:48:25.361Z,98039.00
2023-01-31T06:50:52.132Z,98032.00
2023-01-31T06:53:18.916Z,98027.00
2023-01-31T06:55:45.676Z,98029.00
2023-01-31T06:58:12.447Z,98030.00
2023-01-31T07:00:39.208Z,98045.00
2023-01-31T07:03:06.012Z,98033.00
2023-01-31T07:05:32.828Z,98034.00
2023-01-31T07:07:59.601Z,98030.00
2023-01-31T07:10:26.499Z,98035.00
2023-01-31T07:12:53.387Z,98026.00
2023-01-31T07:15:20.565Z,98030.00
2023-01-31T07:17:47.842Z,98032.00
2023-01-31T07:20:14.710Z,98041.00
2023-01-31T07:22:41.537Z,98028.00
2023-01-31T07:25:08.842Z,98043.00
2023-01-31T07:27:35.902Z,98049.00
2023-01-31T07:30:02.713Z,98044.00
2023-01-31T07:32:31.128Z,98048.00
2023-01-31T07:34:57.983Z,98044.00
2023-01-31T07:37:25.001Z,98042.00
2023-01-31T07:39:51.787Z,98038.00
2023-01-31T07:42:18.628Z,98038.00
2023-01-31T07:44:45.504Z,98043.00
2023-01-31T07:47:12.266Z,98048.00
2023-01-31T07:49:39.073Z,98042.00
2023-01-31T07:52:07.918Z,98046.00
2023-01-31T07:54:35.261Z,98049.00
2023-01-31T07:57:02.079Z,98069.00
2023-01-31T07:59:29.609Z,98068.00
2023-01-31T08:02:14.892Z,98063.00
2023-01-31T08:04:41.676Z,98071.00
2023-01-31T08:07:10.139Z,98071.00
2023-01-31T08:09:39.034Z,98079.00
2023-01-31T08:12:07.809Z,98081.00
2023-01-31T08:14:34.573Z,98071.00
2023-01-31T08:17:01.390Z,98069.00
2023-01-31T08:19:28.244Z,98072.00
2023-01-31T08:21:55.014Z,98068.00
2023-01-31T08:24:21.897Z,98073.00
2023-01-31T08:26:48.759Z,98061.00
2023-01-31T08:29:15.529Z,98066.00
2023-01-31T08:31:42.485Z,98065.00
2023-01-31T08:34:10.126Z,98075.00
2023-01-31T08:36:38.246Z,98071.00
2023-01-31T08:39:05.407Z,98065.00
2023-01-31T08:41:34.694Z,98057.00
2023-01-31T08:44:04.727Z,98063.00
2023-01-31T08:46:35.088Z,98054.00
2023-01-31T08:49:04.573Z,98058.00
2023-01-31T08:51:31.615Z,98061.00
2023-01-31T08:53:58.440Z,98065.00
2023-01-31T08:56:26.258Z,98073.00
2023-01-31T08:58:54.684Z,98061.00
2023-01-31T09:01:22.716Z,98062.00
2023-01-31T09:03:50.691Z,98065.00
2023-01-31T09:06:20.752Z,98054.00
2023-01-31T09:08:47.924Z,98051.00
2023-01-31T09:11:18.755Z,98053.00
2023-01-31T09:13:47.872Z,98038.00
2023-01-31T09:16:15.350Z,98042.00
2023-01-31T09:18:43.288Z,98052.00
2023-01-31T09:21:12.601Z,98041.00
2023-01-31T09:23:42.383Z,98041.00
2023-01-31T09:26:10.964Z,98041.00
2023-01-31T09:28:38.119Z,98032.00
2023-01-31T09:31:11.875Z,98042.00
2023-01-31T09:33:38.787Z,98040.00
2023-01-31T09:36:09.410Z,98044.00
2023-01-31T09:38:36.846Z,98042.00
2023-01-31T09:41:21.485Z,98048.00
2023-01-31T09:43:54.744Z,98043.00
2023-01-31T09:46:27.486Z,98043.00
2023-01-31T09:48:56.598Z,98053.00
2023-01-31T09:51:24.265Z,98051.00
2023-01-31T09:53:51.241Z,98051.00
2023-01-31T09:56:34.220Z,98060.00
2023-01-31T09:59:24.171Z,98064.00
2023-01-31T10:02:05.339Z,98063.00
2023-01-31T10:05:11.798Z,98071.00
2023-01-31T10:08:15.497Z,98083.00
2023-01-31T10:10:48.421Z,98083.00
2023-01-31T10:13:57.724Z,98086.00
2023-01-31T10:16:33.003Z,98068.00
2023-01-31T10:19:16.903Z,98080.00
2023-01-31T10:21:53.340Z,98089.00
2023-01-31T10:24:46.430Z,98079.00
2023-01-31T10:27:31.398Z,98072.00
2023-01-31T10:30:03.954Z,98066.00
2023-01-31T10:32:45.197Z,98074.00
2023-01-31T10:35:23.765Z,98058.00
2023-01-31T10:37:59.613Z,98054.00
2023-01-31T10:40:34.478Z,98055.00
2023-01-31T10:43:09.723Z,98061.00
2023-01-31T10:45:38.465Z,98059.00
2023-01-31T10:48:20.131Z,98066.00
2023-01-31T10:51:24.344Z,98067.00
2023-01-31T10:54:17.251Z,98072.00
2023-01-31T10:56:47.404Z,98083.00
2023-01-31T10:59:38.441Z,98096.00
2023-01-31T11:02:20.032Z,98102.00
2023-01-31T11:04:47.278Z,98103.00
2023-01-31T11:07:14.211Z,98091.00
2023-01-31T11:09:44.050Z,98080.00
2023-01-31T11:12:10.893Z,98071.00
2023-01-31T11:14:37.738Z,98063.00
2023-01-31T11:17:23.461Z,98065.00
2023-01-31T11:19:53.960Z,98071.00
2023-01-31T11:22:27.311Z,98079.00
2023-01-31T11:24:56.637Z,98076.00
2023-01-31T11:27:33.670Z,98085.00
2023-01-31T11:30:00.854Z,98082.00
2023-01-31T11:32:35.212Z,98082.00
2023-01-31T11:35:24.036Z,98069.00
2023-01-31T11:37:55.973Z,98071.00
2023-01-31T11:40:27.653Z,98063.00
2023-01-31T11:43:04.800Z,98060.00
2023-01-31T11:45:36.291Z,98056.00
2023-01-31T11:48:15.386Z,98050.00
2023-01-31T11:51:02.636Z,98045.00
2023-01-31T11:53:44.049Z,98025.00
2023-01-31T11:56:22.066Z,98014.00
2023-01-31T11:58:53.722Z,98009.00
2023-01-31T12:01:23.235Z,97996.00
2023-01-31T12:04:04.648Z,98001.00
2023-01-31T12:06:38.216Z,97987.00
2023-01-31T12:09:28.524Z,97999.00
2023-01-31T12:12:00.184Z,98001.00
2023-01-31T12:14:42.240Z,98002.00
2023-01-31T12:17:16.787Z,98000.00
2023-01-31T12:20:26.952Z,97982.00
2023-01-31T12:23:06.848Z,97976.00
2023-01-31T12:26:10.210Z,97980.00
2023-01-31T12:29:05.685Z,97967.00
2023-01-31T12:31:43.827Z,97962.00
2023-01-31T12:34:24.672Z,97954.00
2023-01-31T12:37:03.160Z,97952.00
2023-01-31T12:40:03.239Z,97960.00
2023-01-31T12:42:55.821Z,97946.00
2023-01-31T12:45:52.988Z,97965.00
2023-01-31T12:48:57.991Z,97959.00
2023-01-31T12:51:46.639Z,97956.00
2023-01-31T12:54:39.317Z,97947.00
2023-01-31T12:57:39.441Z,97943.00
2023-01-31T13:00:18.080Z,97930.00
2023-01-31T13:02:58.575Z,97918.00
2023-01-31T13:05:33.916Z,97936.00
2023-01-31T13:08:11.201Z,97941.00
2023-01-31T13:10:45.037Z,97943.00
2023-01-31T13:13:22.848Z,97929.00
2023-01-31T13:16:01.300Z,97938.00
2023-01-31T13:18:32.840Z,97943.00
2023-01-31T13:21:05.220Z,97945.00
2023-01-31T13:24:13.725Z,97945.00
2023-01-31T13:27:08.995Z,97922.00
2023-01-31T13:29:56.635Z,97932.00
2023-01-31T13:32:30.909Z,97919.00
2023-01-31T13:35:13.214Z,97915.00
2023-01-31T13:37:43.973Z,97912.00
2023-01-31T13:40:19.264Z,97914.00
2023-01-31T13:42:46.115Z,97911.00
2023-01-31T13:45:28.813Z,97908.00
2023-01-31T13:48:26.010Z,97894.00
2023-01-31T13:51:02.904Z,97865.00
2023-01-31T13:53:39.693Z,97855.00
2023-01-31T13:56:11.081Z,97866.00
2023-01-31T13:58:39.099Z,97857.00
2023-01-31T14:01:14.112Z,97850.00
2023-01-31T14:04:12.374Z,97865.00
2023-01-31T14:07:02.599Z,97869.00
2023-01-31T14:09:34.202Z,97865.00
2023-01-31T14:12:09.752Z,97853.00
2023-01-31T14:14:39.857Z,97847.00
2023-01-31T14:17:13.850Z,97840.00
2023-01-31T14:19:43.599Z,97855.00
2023-01-31T14:22:16.750Z,97856.00
2023-01-31T14:24:49.994Z,97821.00
2023-01-31T14:27:31.134Z,97832.00
2023-01-31T14:30:07.097Z,97832.00
2023-01-31T14:32:45.415Z,97843.00
2023-01-31T14:35:14.871Z,97836.00
2023-01-31T14:38:34.139Z,97830.00
2023-01-31T14:41:29.612Z,97839.00
2023-01-31T14:44:03.191Z,97835.00
2023-01-31T14:47:08.325Z,97840.00
2023-01-31T14:50:34.165Z,97835.00
2023-01-31T14:53:39.182Z,97831.00
2023-01-31T14:56:35.346Z,97822.00
2023-01-31T14:59:03.365Z,97818.00
2023-01-31T15:01:36.641Z,97822.00
2023-01-31T15:04:04.566Z,97814.00
2023-01-31T15:06:40.901Z,97805.00
2023-01-31T15:09:24.439Z,97820.00
2023-01-31T15:11:57.515Z,97834.00
2023-01-31T15:14:47.094Z,97844.00
2023-01-31T15:17:35.662Z,97842.00
2023-01-31T15:20:20.634Z,97823.00
2023-01-31T15:22:48.869Z,97813.00
2023-01-31T15:25:45.670Z,97823.00
2023-01-31T15:28:24.888Z,97811.00
2023-01-31T15:30:54.649Z,97813.00
2023-01-31T15:33:45.018Z,97824.00
2023-01-31T15:36:24.191Z,97828.00
2023-01-31T15:39:06.434Z,97813.00
2023-01-31T15:41:41.254Z,97816.00
2023-01-31T15:44:29.182Z,97817.00
2023-01-31T15:47:03.470Z,97821.00
2023-01-31T15:49:40.783Z,97819.00
2023-01-31T15:52:19.400Z,97803.00
2023-01-31T15:54:53.185Z,97803.00
2023-01-31T15:57:23.020Z,97811.00
2023-01-31T15:59:50.154Z,97825.00
2023-01-31T16:02:25.605Z,97828.00
2023-01-31T16:04:52.725Z,97838.00
2023-01-31T16:07:22.182Z,97856.00
2023-01-31T16:09:49.175Z,97848.00
2023-01-31T16:12:16.737Z,97864.00
2023-01-31T16:14:48.021Z,97868.00
2023-01-31T16:17:15.749Z,97886.00
2023-01-31T16:19:43.207Z,97885.00
2023-01-31T16:22:55.804Z,97885.00
2023-01-31T16:25:23.107Z,97891.00
2023-01-31T16:27:50.133Z,97873.00
2023-01-31T16:30:18.787Z,97882.00
2023-01-31T16:32:51.329Z,97900.00
2023-01-31T16:35:26.030Z,97910.00
2023-01-31T16:38:07.675Z,97910.00
2023-01-31T16:40:37.599Z,97920.00
2023-01-31T16:43:25.879Z,97924.00
2023-01-31T16:45:58.831Z,97922.00
2023-01-31T16:48:29.583Z,97923.00
2023-01-31T16:50:59.074Z,97945.00
2023-01-31T16:53:41.540Z,97926.00
2023-01-31T16:56:14.454Z,97925.00
2023-01-31T16:58:59.157Z,97927.00
2023-01-31T17:01:34.316Z,97933.00
2023-01-31T17:04:09.020Z,97942.00
2023-01-31T17:06:36.271Z,97942.00
2023-01-31T17:09:05.511Z,97943.00
2023-01-31T17:11:43.026Z,97944.00
2023-01-31T17:14:11.088Z,97932.00
2023-01-31T17:16:37.921Z,97933.00
2023-01-31T17:19:04.794Z,97913.00
2023-01-31T17:21:40.860Z,97922.00
2023-01-31T17:24:17.692Z,97915.00
2023-01-31T17:26:45.677Z,97922.00
2023-01-31T17:29:12.480Z,97924.00
2023-01-31T17:31:39.462Z,97932.00
2023-01-31T17:34:13.835Z,97930.00
2023-01-31T17:36:40.883Z,97927.00
2023-01-31T17:39:07.801Z,97929.00
2023-01-31T17:41:34.863Z,97922.00
2023-01-31T17:44:06.435Z,97920.00
2023-01-31T17:46:33.713Z,97924.00
2023-01-31T17:49:00.562Z,97913.00
2023-01-31T17:51:27.439Z,97913.00
2023-01-31T17:53:54.215Z,97915.00
2023-01-31T17:56:21.279Z,97919.00
2023-01-31T17:58:49.279Z,97922.00
2023-01-31T18:01:16.134Z,97919.00
2023-01-31T18:03:43.117Z,97929.00
2023-01-31T18:06:12.262Z,97924.00
2023-01-31T18:08:39.285Z,97927.00
2023-01-31T18:11:12.434Z,97938.00
2023-01-31T18:13:39.906Z,97937.00
2023-01-31T18:16:16.392Z,97938.00
2023-01-31T18:18:43.952Z,97934.00
2023-01-31T18:21:19.370Z,97935.00
2023-01-31T18:23:52.275Z,97937.00
2023-01-31T18:26:20.184Z,97945.00
2023-01-31T18:28:47.420Z,97952.00
2023-01-31T18:31:15.724Z,97942.00
2023-01-31T18:33:45.298Z,97940.00
2023-01-31T18:36:19.157Z,97931.00
2023-01-31T18:38:48.157Z,97933.00
2023-01-31T18:41:18.925Z,97928.00
2023-01-31T18:43:46.464Z,97927.00
2023-01-31T18:46:13.820Z,97913.00
2023-01-31T18:48:41.804Z,97917.00
2023-01-31T18:51:12.650Z,97920.00
2023-01-31T18:53:45.408Z,97924.00
2023-01-31T18:56:22.166Z,97922.00
2023-01-31T18:58:49.811Z,97933.00
2023-01-31T19:01:20.561Z,97933.00
2023-01-31T19:03:55.918Z,97932.00
2023-01-31T19:06:26.969Z,97921.00
2023-01-31T19:08:56.382Z,97914.00
2023-01-31T19:11:27.062Z,97913.00
2023-01-31T19:13:54.089Z,97915.00
2023-01-31T19:16:24.639Z,97917.00
2023-01-31T19:18:52.334Z,97910.00
2023-01-31T19:21:32.140Z,97925.00
2023-01-31T19:24:02.827Z,97919.00
2023-01-31T19:26:31.407Z,97908.00
2023-01-31T19:29:00.041Z,97905.00
2023-01-31T19:31:31.165Z,97910.00
2023-01-31T19:34:01.572Z,97904.00
2023-01-31T19:36:31.840Z,97901.00
2023-01-31T19:39:00.637Z,97907.00
2023-01-31T19:41:28.713Z,97904.00
2023-01-31T19:44:00.582Z,97910.00
2023-01-31T19:46:30.871Z,97907.00
2023-01-31T19:48:58.806Z,97903.00
2023-01-31T19:51:26.880Z,97896.00
2023-01-31T19:54:01.129Z,97901.00
2023-01-31T19:56:29.097Z,97909.00
2023-01-31T19:58:56.322Z,97902.00
2023-01-31T20:01:23.393Z,97898.00
2023-01-31T20:03:50.249Z,97883.00
2023-01-31T20:06:25.504Z,97892.00
2023-01-31T20:08:56.011Z,97900.00
2023-01-31T20:11:24.471Z,97891.00
2023-01-31T20:13:53.474Z,97890.00
2023-01-31T20:16:21.980Z,97882.00
2023-01-31T20:18:51.145Z,97889.00
2023-01-31T20:21:20.833Z,97887.00
2023-01-31T20:23:49.044Z,97898.00
2023-01-31T20:26:17.604Z,97887.00
2023-01-31T20:28:44.773Z,97882.00
2023-01-31T20:31:14.557Z,97891.00
2023-01-31T20:33:42.076Z,97885.00
2023-01-31T20:36:10.412Z,97875.00
2023-01-31T20:38:38.553Z,97873.00
2023-01-31T20:41:08.485Z,97876.00
2023-01-31T20:43:36.595Z,97879.00
2023-01-31T20:46:07.207Z,97872.00
2023-01-31T20:48:34.475Z,97877.00
2023-01-31T20:51:01.628Z,97874.00
2023-01-31T20:53:28.770Z,97868.00
2023-01-31T20:56:02.365Z,97875.00
2023-01-31T20:58:33.561Z,97878.00
2023-01-31T21:01:01.279Z,97865.00
2023-01-31T21:03:29.788Z,97869.00
2023-01-31T21:06:00.062Z,97869.00
2023-01-31T21:08:27.481Z,97874.00
2023-01-31T21:10:57.991Z,97876.00
2023-01-31T21:13:28.868Z,97880.00
2023-01-31T21:16:01.959Z,97875.00
2023-01-31T21:18:32.225Z,97872.00
2023-01-31T21:20:59.050Z,97875.00
2023-01-31T21:23:25.895Z,97878.00
2023-01-31T21:25:52.669Z,97871.00
2023-01-31T21:28:19.445Z,97873.00
2023-01-31T21:30:57.261Z,97872.00
2023-01-31T21:33:25.097Z,97860.00
2023-01-31T21:35:51.877Z,97868.00
2023-01-31T21:38:18.616Z,97867.00
2023-01-31T21:40:45.405Z,97864.00
2023-01-31T21:43:12.159Z,97867.00
2023-01-31T21:45:41.593Z,97866.00
2023-01-31T21:48:29.196Z,97865.00
2023-01-31T21:50:57.341Z,97865.00
2023-01-31T21:53:24.819Z,97874.00
2023-01-31T21:56:13.933Z,97862.00
2023-01-31T21:58:41.493Z,97850.00
2023-01-31T22:01:18.259Z,97853.00
2023-01-31T22:03:50.465Z,97845.00
2023-01-31T22:06:22.243Z,97853.00
2023-01-31T22:08:55.293Z,97843.00
2023-01-31T22:11:22.909Z,97845.00
2023-01-31T22:13:55.559Z,97844.00
2023-01-31T22:16:23.109Z,97843.00
2023-01-31T22:18:51.636Z,97839.00
2023-01-31T22:21:31.137Z,97827.00
2023-01-31T22:24:00.442Z,97819.00
2023-01-31T22:26:37.452Z,97816.00
2023-01-31T22:29:07.604Z,97821.00
2023-01-31T22:31:35.299Z,97824.00
2023-01-31T22:34:03.605Z,97825.00
2023-01-31T22:36:30.992Z,97824.00
2023-01-31T22:38:57.857Z,97815.00
2023-01-31T22:41:25.062Z,97819.00
2023-01-31T22:43:53.123Z,97827.00
2023-01-31T22:46:23.878Z,97830.00
2023-01-31T22:48:50.927Z,97829.00
2023-01-31T22:51:24.364Z,97838.00
2023-01-31T22:53:51.587Z,97838.00
2023-01-31T22:56:24.643Z,97824.00
2023-01-31T22:59:05.381Z,97836.00
2023-01-31T23:01:37.773Z,97831.00
2023-01-31T23:04:10.801Z,97841.00
2023-01-31T23:06:38.477Z,97843.00
2023-01-31T23:09:05.884Z,97844.00
2023-01-31T23:11:32.963Z,97831.00
2023-01-31T23:13:59.926Z,97843.00
2023-01-31T23:16:47.044Z,97834.00
2023-01-31T23:19:15.322Z,97827.00
2023-01-31T23:21:42.824Z,97833.00
2023-01-31T23:24:10.453Z,97832.00
2023-01-31T23:26:37.309Z,97826.00
2023-01-31T23:29:04.215Z,97834.00
2023-01-31T23:31:32.327Z,97823.00
2023-01-31T23:34:05.887Z,97830.00
2023-01-31T23:36:32.854Z,97827.00
2023-01-31T23:38:59.636Z,97837.00
2023-01-31T23:41:26.423Z,97828.00
2023-01-31T23:43:53.242Z,97829.00
2023-01-31T23:46:20.024Z,97818.00
2023-01-31T23:48:46.801Z,97812.00
2023-01-31T23:51:13.622Z,97811.00
2023-01-31T23:53:40.381Z,97815.00
2023-01-31T23:56:07.478Z,97812.00
2023-01-31T23:58:34.248Z,97803.00
